Terminal Aerodrome Forecast
Issued by NWS

Home | Current Version | Previous Version | Text Only | Print | Product List | Glossary On
Versions: 1 2 3 4 5 6 7 8 9 10 11 12 13 14 15 16 17 18 19 20 21 22 23 24 25 26 27 28 29 30 31 32 33 34 35 36
000
FTUS46 KPQR 031140
TAFONP
TAF
KONP 031140Z 0312/0412 VRB03KT 4SM -DZ BR BKN005 OVC020
     FM031600 VRB03KT P6SM SCT009 OVC020
     FM032200 34010KT P6SM BKN025
     FM040700 VRB03KT P6SM SCT006 OVC012=

USA.gov is the U.S. government's official web portal to all federal, state and local government web resources and services.